Time;durP1;ratioP1;P1;durP2;ratioP2;P2;SDS_P1;SDS_P2;PMS_P1;PMS_P2;Temp;Humidity;BMP_temperature;BMP_pressure;BME280_temperature;BME280_humidity;BME280_pressure;Samples;Min_cycle;Max_cycle;Signal;HPM_P1;HPM_P2
2022/12/24 00:02:21;;;;;;;56.17;31.25;;;;;;;1.34;88.99;99984.25;5091462;28;20031;-27
2022/12/24 00:04:47;;;;;;;56.83;31.23;;;;;;;1.58;88.43;99986.13;5091770;28;20039;-30
2022/12/24 00:07:12;;;;;;;57.63;33.53;;;;;;;1.55;88.25;99985.59;5091278;28;20031;-26
2022/12/24 00:09:38;;;;;;;58.67;30.90;;;;;;;1.39;87.78;99960.16;5090179;28;20089;-30
2022/12/24 00:12:04;;;;;;;59.58;33.55;;;;;;;1.38;88.04;99969.81;5091134;28;20028;-27
2022/12/24 00:14:29;;;;;;;64.30;33.47;;;;;;;1.49;88.24;99992.34;5091592;28;20139;-31
2022/12/24 00:16:55;;;;;;;59.05;32.22;;;;;;;1.18;89.08;99965.84;5091303;28;20108;-27
2022/12/24 00:19:20;;;;;;;60.40;34.67;;;;;;;1.18;89.42;99989.47;5091156;28;20035;-28
2022/12/24 00:21:45;;;;;;;61.75;31.88;;;;;;;1.20;89.90;99998.84;5091351;28;20052;-28
2022/12/24 00:24:11;;;;;;;63.50;33.55;;;;;;;1.36;88.88;100005.13;5091199;28;20462;-28
2022/12/24 00:26:36;;;;;;;66.10;34.50;;;;;;;1.37;87.64;99997.09;5072994;28;20024;-29
2022/12/24 00:29:02;;;;;;;57.40;32.20;;;;;;;1.12;88.27;99980.41;5091251;28;20016;-27
2022/12/24 00:31:28;;;;;;;61.70;32.70;;;;;;;1.24;87.67;99982.75;5091176;28;20028;-29
2022/12/24 00:33:53;;;;;;;57.20;31.02;;;;;;;1.04;88.23;99975.13;5090933;28;20051;-27
2022/12/24 00:36:20;;;;;;;58.88;31.15;;;;;;;1.28;88.58;99995.41;5091025;28;20036;-27
2022/12/24 00:38:45;;;;;;;58.08;30.77;;;;;;;1.09;89.64;100001.75;5072864;28;20032;-28
2022/12/24 00:41:24;;;;;;;58.10;30.05;;;;;;;1.14;89.70;99999.47;5072749;28;20032;-27
2022/12/24 00:44:01;;;;;;;54.70;29.50;;;;;;;1.07;90.82;100002.91;5090999;28;20028;-26
2022/12/24 00:46:29;;;;;;;54.78;30.40;;;;;;;1.13;90.16;100003.09;5090787;28;20024;-30
2022/12/24 00:48:54;;;;;;;63.67;32.70;;;;;;;1.08;90.01;99989.59;5072628;28;20067;-26
2022/12/24 00:51:21;;;;;;;55.58;30.88;;;;;;;1.05;89.41;99974.16;5089676;28;20060;-31
2022/12/24 00:53:47;;;;;;;54.22;31.35;;;;;;;0.86;89.96;99998.03;5072119;28;20087;-27
2022/12/24 00:56:12;;;;;;;54.50;29.95;;;;;;;0.89;88.34;100001.19;5090346;28;20017;-26
2022/12/24 00:58:38;;;;;;;65.40;32.35;;;;;;;0.74;88.21;99977.34;5090523;28;20137;-29
2022/12/24 01:01:04;;;;;;;58.33;30.75;;;;;;;1.01;87.88;99999.09;5090169;28;20123;-27
2022/12/24 01:03:36;;;;;;;64.03;32.33;;;;;;;1.16;87.54;99997.50;5071498;28;20040;-27
2022/12/24 01:06:10;;;;;;;54.67;30.10;;;;;;;1.25;87.43;99997.53;5090269;28;20039;-28
2022/12/24 01:08:36;;;;;;;52.90;28.73;;;;;;;0.93;87.40;99999.06;5072218;28;20028;-27
2022/12/24 01:11:03;;;;;;;54.28;30.13;;;;;;;0.74;88.19;99990.47;5090113;28;20040;-28
2022/12/24 01:13:28;;;;;;;57.15;28.48;;;;;;;0.74;89.05;99964.22;5090013;28;20408;-26
2022/12/24 01:15:54;;;;;;;52.85;28.58;;;;;;;0.80;88.14;99981.97;5071515;28;20032;-27
2022/12/24 01:18:20;;;;;;;47.45;25.90;;;;;;;0.89;88.22;99985.44;5072453;28;20035;-26
2022/12/24 01:20:45;;;;;;;50.05;25.50;;;;;;;0.80;88.29;99974.09;5069559;28;20072;-26
2022/12/24 01:23:11;;;;;;;43.33;25.02;;;;;;;0.85;89.37;99959.66;5069720;28;20031;-27
2022/12/24 01:25:37;;;;;;;43.58;25.10;;;;;;;0.91;89.72;99961.66;5069605;28;20064;-27
2022/12/24 01:28:03;;;;;;;45.67;25.33;;;;;;;1.03;89.87;99956.94;5069700;28;20043;-27
2022/12/24 01:30:29;;;;;;;44.05;25.88;;;;;;;0.94;89.48;99956.06;5051779;28;20077;-28
2022/12/24 01:32:54;;;;;;;48.55;24.35;;;;;;;0.72;89.30;99928.63;5069630;28;20024;-28
2022/12/24 01:35:20;;;;;;;47.03;24.38;;;;;;;0.82;88.02;99949.47;5051957;28;20029;-26
2022/12/24 01:37:46;;;;;;;57.38;37.70;;;;;;;0.64;86.93;99924.16;5069713;28;20024;-27
2022/12/24 01:45:49;;;;;;;44.67;24.02;;;;;;;0.47;86.82;99939.00;5069415;28;20094;-27
2022/12/24 01:48:37;;;;;;;42.50;23.73;;;;;;;0.58;87.74;99956.28;5069090;28;20024;-32
2022/12/24 01:51:35;;;;;;;40.00;23.13;;;;;;;0.48;87.76;99958.19;5068410;28;20520;-28
2022/12/24 01:54:11;;;;;;;47.92;24.20;;;;;;;0.43;88.67;99934.19;5050952;28;20496;-27
2022/12/24 01:56:44;;;;;;;44.63;23.42;;;;;;;0.39;89.64;99966.00;5068990;28;20028;-27
2022/12/24 01:59:14;;;;;;;47.15;25.40;;;;;;;0.52;90.05;99946.41;5068998;28;20025;-27
2022/12/24 02:01:39;;;;;;;40.88;23.10;;;;;;;0.25;89.42;99940.34;5050933;28;20472;-28
2022/12/24 02:04:16;;;;;;;39.50;21.92;;;;;;;0.51;88.95;99963.94;5050943;28;20063;-27
2022/12/24 02:06:42;;;;;;;49.05;25.33;;;;;;;0.50;88.68;99941.31;5050971;28;20029;-26
2022/12/24 02:09:07;;;;;;;43.28;23.30;;;;;;;0.64;87.94;99945.13;5051005;28;20488;-27
2022/12/24 02:11:38;;;;;;;43.30;25.45;;;;;;;0.69;87.70;99947.28;5068822;28;20082;-27
2022/12/24 02:14:04;;;;;;;52.78;27.17;;;;;;;0.57;88.43;99954.59;5068644;28;20024;-28
2022/12/24 02:16:32;;;;;;;55.25;28.98;;;;;;;0.55;88.98;99967.06;5068896;28;20403;-27
2022/12/24 02:19:34;;;;;;;45.13;26.60;;;;;;;0.33;89.56;99958.75;5050761;28;20095;-27
2022/12/24 02:22:06;;;;;;;50.22;27.67;;;;;;;0.38;90.03;99974.84;5050138;28;20471;-27
2022/12/24 02:24:50;;;;;;;49.15;26.75;;;;;;;0.25;89.96;99965.75;5050608;28;20033;-26
2022/12/24 02:27:28;;;;;;;52.25;28.33;;;;;;;0.34;89.74;99967.44;5068423;28;20404;-28
2022/12/24 02:30:02;;;;;;;;;;;;;;;0.18;89.60;99963.75;5069066;28;20059;-29
2022/12/24 02:32:34;;;;;;;55.50;28.55;;;;;;;0.47;89.53;99964.41;5068490;28;20418;-28
2022/12/24 02:35:22;;;;;;;53.22;28.55;;;;;;;0.64;88.45;99952.19;5068574;28;20028;-28
2022/12/24 02:37:56;;;;;;;53.75;28.92;;;;;;;0.56;87.87;99960.84;5068314;28;20089;-29
2022/12/24 02:40:30;;;;;;;54.88;29.73;;;;;;;0.68;88.56;99961.41;5068054;28;20028;-26
2022/12/24 02:43:02;;;;;;;53.50;28.58;;;;;;;0.82;87.29;99962.59;5050329;28;20086;-28
2022/12/24 02:45:30;;;;;;;51.47;27.52;;;;;;;0.44;88.00;99938.47;5068462;28;20063;-31
2022/12/24 02:47:56;;;;;;;51.42;28.65;;;;;;;0.57;88.21;99967.72;5068523;28;20498;-27
2022/12/24 02:50:22;;;;;;;53.83;29.48;;;;;;;0.54;87.97;99970.69;5067966;28;20093;-28
2022/12/24 02:52:48;;;;;;;58.80;31.98;;;;;;;0.32;88.61;99970.22;5068078;28;20039;-30
2022/12/24 02:55:18;;;;;;;58.58;29.48;;;;;;;0.26;88.99;99972.63;5068037;28;20420;-26
2022/12/24 02:58:20;;;;;;;58.08;29.52;;;;;;;0.08;89.76;99967.44;5067967;28;20032;-29
2022/12/24 03:01:17;;;;;;;55.47;28.98;;;;;;;0.26;89.92;99973.47;5068157;28;20029;-28
2022/12/24 03:03:57;;;;;;;47.20;27.63;;;;;;;0.28;89.41;99971.50;5067761;28;20032;-27
2022/12/24 03:06:50;;;;;;;51.60;28.35;;;;;;;0.29;88.29;99967.09;5067973;28;20531;-27
2022/12/24 03:09:55;;;;;;;61.30;30.63;;;;;;;0.68;88.79;99983.22;5033221;28;20381;-26
2022/12/24 03:12:27;;;;;;;56.35;31.35;;;;;;;0.36;88.88;99960.25;5067499;28;20028;-27
2022/12/24 03:14:52;;;;;;;66.80;32.45;;;;;;;0.52;88.47;99983.13;5067878;28;20107;-28
2022/12/24 03:17:19;;;;;;;63.92;33.95;;;;;;;0.63;87.92;99984.66;5067735;28;20457;-29
2022/12/24 03:19:45;;;;;;;62.67;33.80;;;;;;;0.29;88.81;99978.41;5067830;28;20567;-27
2022/12/24 03:22:12;;;;;;;61.80;33.15;;;;;;;0.26;89.00;99973.47;5067652;28;20143;-31
2022/12/24 03:24:37;;;;;;;62.45;32.85;;;;;;;0.29;89.70;99967.09;5067629;28;20111;-30
2022/12/24 03:27:08;;;;;;;58.92;32.28;;;;;;;0.09;89.27;99948.13;5049025;28;20139;-30
2022/12/24 03:29:34;;;;;;;58.22;30.77;;;;;;;0.26;89.71;99962.97;5049984;28;20028;-32
2022/12/24 03:32:02;;;;;;;54.47;29.98;;;;;;;0.44;89.71;99960.28;5049612;28;20094;-32
2022/12/24 03:34:28;;;;;;;57.90;30.20;;;;;;;0.35;89.72;99933.19;5049714;28;20059;-28
2022/12/24 03:36:54;;;;;;;56.47;30.58;;;;;;;0.44;91.38;99954.22;5067929;28;20048;-30
2022/12/24 03:39:20;;;;;;;58.83;31.33;;;;;;;0.56;91.56;99952.97;5067605;28;20401;-29
2022/12/24 03:41:46;;;;;;;59.45;32.97;;;;;;;0.71;90.88;99950.56;5067915;28;20025;-30
2022/12/24 03:44:12;;;;;;;59.70;33.42;;;;;;;0.73;90.85;99959.94;5067810;28;20028;-28
2022/12/24 03:46:37;;;;;;;59.92;32.25;;;;;;;0.51;90.94;99939.50;5067786;28;20059;-28
2022/12/24 03:49:02;;;;;;;56.88;31.23;;;;;;;0.62;90.43;99951.53;5067457;28;20411;-27
2022/12/24 03:51:28;;;;;;;53.78;30.55;;;;;;;0.46;91.18;99950.47;5067810;28;20037;-27
2022/12/24 03:53:56;;;;;;;53.97;28.25;;;;;;;0.29;89.21;99957.44;5049050;28;20028;-28
2022/12/24 03:56:22;;;;;;;46.00;27.60;;;;;;;0.18;88.06;99955.03;5049296;28;20110;-26
2022/12/24 03:58:48;;;;;;;50.53;30.15;;;;;;;-0.24;89.02;99930.34;5067446;28;20029;-27
2022/12/24 04:01:14;;;;;;;49.60;27.15;;;;;;;-0.19;89.10;99956.09;5049231;28;20378;-27
2022/12/24 04:03:39;;;;;;;59.35;32.00;;;;;;;-0.21;89.08;99955.44;5049234;28;20112;-29
2022/12/24 04:06:08;;;;;;;73.80;39.20;;;;;;;-0.08;90.62;99955.88;5067330;28;20762;-27
2022/12/24 04:08:35;;;;;;;61.15;32.97;;;;;;;0.17;89.12;99953.41;5048997;28;20021;-26
2022/12/24 04:11:00;;;;;;;57.78;31.98;;;;;;;0.20;88.68;99953.09;5049225;28;20086;-26
2022/12/24 04:13:26;;;;;;;59.83;31.30;;;;;;;0.16;88.70;99967.50;5049252;28;20020;-28
2022/12/24 04:15:59;;;;;;;60.20;30.23;;;;;;;0.20;88.85;99960.97;5049230;28;20547;-27
2022/12/24 04:18:26;;;;;;;57.30;30.95;;;;;;;0.12;88.53;99972.25;5049176;28;20032;-29
2022/12/24 04:20:52;;;;;;;64.70;34.72;;;;;;;0.09;88.80;99953.38;5066455;28;20059;-28
2022/12/24 04:23:17;;;;;;;71.13;37.58;;;;;;;0.36;88.44;99968.94;5067191;28;20016;-27
2022/12/24 04:25:43;;;;;;;68.13;37.80;;;;;;;0.29;88.43;99960.06;5049153;28;20171;-28
2022/12/24 04:28:08;;;;;;;63.25;34.95;;;;;;;0.31;87.97;99965.97;5067038;28;20099;-28
2022/12/24 04:30:33;;;;;;;58.78;32.70;;;;;;;0.33;88.29;99960.56;5067226;28;20054;-26
2022/12/24 04:32:59;;;;;;;68.22;34.72;;;;;;;0.55;87.58;99961.81;5049029;28;20020;-28
2022/12/24 04:35:24;;;;;;;73.75;37.35;;;;;;;0.27;88.84;99964.63;5066977;28;20175;-27
2022/12/24 04:37:49;;;;;;;71.35;36.20;;;;;;;0.34;88.05;99955.16;5067344;28;20412;-30
2022/12/24 04:40:15;;;;;;;55.78;33.75;;;;;;;0.20;87.93;99939.97;5069502;28;20028;-26
2022/12/24 04:42:40;;;;;;;57.67;30.90;;;;;;;0.52;86.82;99949.03;5070761;28;20137;-27
2022/12/24 04:45:06;;;;;;;68.05;32.92;;;;;;;0.47;86.51;99959.16;5052703;28;20025;-29
2022/12/24 04:47:32;;;;;;;84.20;36.88;;;;;;;0.46;86.66;99957.53;5052385;28;20032;-27
2022/12/24 04:49:58;;;;;;;94.68;40.55;;;;;;;0.18;88.04;99936.69;5070454;28;20037;-27
2022/12/24 04:52:23;;;;;;;92.10;40.15;;;;;;;0.25;87.70;99952.66;5070155;28;20484;-27
2022/12/24 04:54:49;;;;;;;72.47;34.13;;;;;;;0.18;88.23;99960.28;5052396;28;20036;-27
2022/12/24 04:57:14;;;;;;;65.15;33.15;;;;;;;0.05;88.71;99965.13;5052333;28;20056;-27
2022/12/24 04:59:39;;;;;;;57.80;31.27;;;;;;;0.28;88.23;99965.44;5070548;28;20090;-26
2022/12/24 05:02:05;;;;;;;67.05;33.53;;;;;;;0.16;87.52;99972.72;5070504;28;20032;-26
2022/12/24 05:04:30;;;;;;;81.00;40.65;;;;;;;-0.07;88.31;99946.19;5070525;28;20029;-26
2022/12/24 05:06:56;;;;;;;87.97;41.10;;;;;;;-0.15;88.43;99967.94;5052008;28;20024;-29
2022/12/24 05:09:21;;;;;;;70.13;36.42;;;;;;;-0.33;89.07;99972.34;5070709;28;20040;-27
2022/12/24 05:11:47;;;;;;;62.50;32.92;;;;;;;-0.21;89.04;99971.97;5070392;28;20033;-26
2022/12/24 05:14:12;;;;;;;60.40;32.05;;;;;;;-0.28;88.76;99975.38;5051969;28;20036;-28
2022/12/24 05:16:37;;;;;;;56.15;31.30;;;;;;;-0.38;89.08;99964.97;5069992;28;20031;-26
2022/12/24 05:19:03;;;;;;;53.58;30.25;;;;;;;-0.38;88.58;99945.81;5052128;28;20036;-29
2022/12/24 05:21:29;;;;;;;58.58;30.85;;;;;;;-0.21;87.88;99971.16;5069482;28;20117;-27
2022/12/24 05:26:45;;;;;;;57.00;29.95;;;;;;;-0.52;88.32;99979.41;5070221;28;20040;-29
2022/12/24 05:29:11;;;;;;;68.93;37.70;;;;;;;-0.41;89.62;99979.19;5052000;28;20020;-27
2022/12/24 05:31:38;;;;;;;90.40;44.03;;;;;;;-0.42;88.09;99985.38;5069913;28;20104;-30
2022/12/24 05:34:04;;;;;;;102.55;45.88;;;;;;;-0.86;88.84;99963.50;5070046;28;20034;-26
2022/12/24 05:36:30;;;;;;;55.28;30.02;;;;;;;-0.68;87.41;99987.09;5069864;28;20025;-26
2022/12/24 05:38:56;;;;;;;68.45;32.28;;;;;;;-0.68;88.53;99969.56;5070149;28;20420;-28
2022/12/24 05:41:22;;;;;;;60.08;30.25;;;;;;;-0.50;87.31;99959.13;5069830;28;20037;-30
2022/12/24 05:43:48;;;;;;;57.35;30.45;;;;;;;-0.52;87.64;99968.91;5069748;28;20530;-28
2022/12/24 05:46:17;;;;;;;63.85;30.60;;;;;;;-0.50;87.60;99993.16;5069331;28;20492;-29
2022/12/24 05:48:43;;;;;;;63.15;32.72;;;;;;;-0.62;88.56;99986.50;5051734;28;20024;-27
2022/12/24 05:51:11;;;;;;;56.35;29.63;;;;;;;-0.52;88.61;99992.50;5069341;28;20062;-27
2022/12/24 05:53:36;;;;;;;60.13;31.08;;;;;;;-0.57;89.04;99986.03;5069433;28;20032;-27
2022/12/24 05:56:07;;;;;;;68.85;34.72;;;;;;;-0.42;89.19;100000.28;5069691;28;20033;-27
2022/12/24 05:58:33;;;;;;;65.00;36.00;;;;;;;-0.61;89.38;99947.06;5069452;28;20024;-29
2022/12/24 06:01:01;;;;;;;62.90;34.28;;;;;;;-0.43;88.11;99988.16;5050994;28;20498;-28
2022/12/24 06:03:26;;;;;;;69.50;35.13;;;;;;;-0.50;86.89;99980.06;5069350;28;20038;-26
2022/12/24 06:05:58;;;;;;;64.75;31.77;;;;;;;-0.44;88.03;99995.19;5069673;28;20028;-26
2022/12/24 06:08:24;;;;;;;65.47;33.88;;;;;;;-0.51;88.31;99996.78;5069276;28;20054;-25
2022/12/24 06:10:58;;;;;;;58.67;30.67;;;;;;;-0.32;88.47;100008.09;5069211;28;20073;-28
2022/12/24 06:13:24;;;;;;;62.97;30.42;;;;;;;-0.17;89.05;99993.47;5051255;28;20126;-27
2022/12/24 06:15:50;;;;;;;54.58;29.25;;;;;;;0.13;88.01;100017.63;5051238;28;20071;-29
2022/12/24 06:18:15;;;;;;;52.50;29.27;;;;;;;-0.12;88.16;99990.38;5069079;28;20028;-28
2022/12/24 06:20:41;;;;;;;49.83;25.95;;;;;;;0.09;86.49;100013.66;5050574;28;20044;-27
2022/12/24 06:23:06;;;;;;;53.95;27.70;;;;;;;-0.15;88.70;100015.09;5068907;28;20062;-28
2022/12/24 06:25:33;;;;;;;76.45;40.60;;;;;;;-0.03;89.69;100013.91;5068762;28;20032;-29
2022/12/24 06:27:58;;;;;;;59.95;30.98;;;;;;;0.11;88.25;100016.97;5069015;28;20033;-27
2022/12/24 06:30:24;;;;;;;54.83;29.10;;;;;;;0.30;87.96;100022.00;5068516;28;20059;-28
2022/12/24 06:32:49;;;;;;;518.45;213.57;;;;;;;0.51;87.22;100015.59;5068678;28;20020;-25
2022/12/24 06:35:14;;;;;;;297.35;121.22;;;;;;;0.45;88.89;100029.31;5068870;28;20043;-27
2022/12/24 06:37:40;;;;;;;270.60;137.63;;;;;;;0.51;88.85;100013.81;5068304;28;20024;-30
2022/12/24 06:40:06;;;;;;;232.65;134.77;;;;;;;0.46;89.97;100017.88;5068273;28;20025;-26
2022/12/24 06:42:31;;;;;;;59.13;35.05;;;;;;;0.42;90.80;100024.41;5068235;28;20020;-27
2022/12/24 06:44:57;;;;;;;96.93;58.35;;;;;;;0.47;91.54;99993.25;5069074;28;20063;-30
2022/12/24 06:47:22;;;;;;;67.22;37.78;;;;;;;1.06;89.92;100017.81;5068329;28;20020;-29
2022/12/24 06:49:47;;;;;;;49.97;26.90;;;;;;;1.35;89.58;100017.44;5050500;28;20038;-27
2022/12/24 06:52:13;;;;;;;59.22;41.33;;;;;;;1.44;88.67;99997.25;5068108;28;20137;-29
2022/12/24 06:54:39;;;;;;;42.63;27.00;;;;;;;1.25;90.01;100005.41;5068195;28;20047;-30
2022/12/24 06:57:06;;;;;;;94.60;48.72;;;;;;;1.04;90.40;100013.72;5068612;28;20017;-29
2022/12/24 06:59:31;;;;;;;84.90;44.90;;;;;;;1.03;90.30;100015.53;5050118;28;20033;-29
2022/12/24 07:01:57;;;;;;;80.82;41.08;;;;;;;1.32;89.04;99988.84;5067666;28;20028;-26
2022/12/24 07:04:22;;;;;;;42.78;25.48;;;;;;;1.65;88.79;100012.56;5068210;28;20033;-27
2022/12/24 07:06:47;;;;;;;41.30;25.10;;;;;;;1.95;87.41;100003.22;5050214;28;20094;-29
2022/12/24 07:09:13;;;;;;;38.65;23.00;;;;;;;1.76;88.88;99987.78;5068023;28;20148;-27
2022/12/24 07:11:39;;;;;;;42.95;23.33;;;;;;;2.01;88.51;100018.34;5049828;28;20062;-27
2022/12/24 07:14:04;;;;;;;47.20;26.75;;;;;;;2.13;87.53;100015.41;5072731;28;20160;-27
2022/12/24 07:16:29;;;;;;;57.33;29.67;;;;;;;2.18;86.72;100015.72;5070259;28;20028;-27
2022/12/24 07:18:55;;;;;;;43.53;25.80;;;;;;;2.29;86.77;100012.75;5069850;28;20043;-27
2022/12/24 07:21:20;;;;;;;41.17;24.17;;;;;;;2.37;86.23;100009.28;5086332;28;20584;-27
2022/12/24 07:23:46;;;;;;;45.55;26.95;;;;;;;2.17;88.53;100008.81;5088418;28;20028;-30
2022/12/24 07:26:12;;;;;;;49.72;27.70;;;;;;;2.32;87.64;99994.00;5087491;28;20169;-26
2022/12/24 07:28:38;;;;;;;46.00;27.88;;;;;;;2.50;86.57;99991.16;5069478;28;20732;-26
2022/12/24 07:31:03;;;;;;;43.45;26.90;;;;;;;2.65;87.34;100019.44;5069805;28;20483;-28
2022/12/24 07:33:29;;;;;;;50.72;28.25;;;;;;;2.91;86.95;100027.91;5069738;28;20139;-27
2022/12/24 07:36:03;;;;;;;45.53;25.92;;;;;;;3.20;86.03;100024.66;5088057;28;20035;-27
2022/12/24 07:38:29;;;;;;;44.63;25.30;;;;;;;3.35;85.22;100026.56;5087827;28;20024;-29
2022/12/24 07:40:56;;;;;;;47.92;27.58;;;;;;;3.42;85.38;100036.25;5087386;28;20043;-29
2022/12/24 07:43:21;;;;;;;50.50;30.40;;;;;;;3.46;86.30;100022.75;5088235;28;20039;-27
2022/12/24 07:45:47;;;;;;;51.55;29.58;;;;;;;3.52;84.84;100020.22;5069847;28;20020;-27
2022/12/24 07:48:12;;;;;;;50.17;28.45;;;;;;;3.61;84.78;100019.16;5087702;28;20032;-27
2022/12/24 07:50:38;;;;;;;51.20;26.85;;;;;;;4.00;83.71;100036.72;5087663;28;20044;-26
2022/12/24 07:53:03;;;;;;;45.47;27.00;;;;;;;4.03;83.76;100014.44;5087672;28;20024;-29
2022/12/24 07:55:28;;;;;;;44.17;27.13;;;;;;;4.42;83.19;100035.38;5087361;28;20025;-26
2022/12/24 07:57:54;;;;;;;45.20;25.52;;;;;;;4.75;82.26;100050.91;5088001;28;20031;-26
2022/12/24 08:00:19;;;;;;;42.00;24.52;;;;;;;5.20;81.24;100048.25;5087542;28;20111;-27
2022/12/24 08:02:45;;;;;;;42.25;24.65;;;;;;;5.50;80.15;100054.31;5087761;28;20024;-31
2022/12/24 08:05:10;;;;;;;43.30;24.40;;;;;;;5.68;79.26;100051.25;5069378;28;20077;-28
2022/12/24 08:07:36;;;;;;;52.65;28.98;;;;;;;5.63;78.01;100043.06;5087650;28;20024;-29
2022/12/24 08:10:02;;;;;;;47.88;28.95;;;;;;;6.01;76.76;100046.31;5086942;28;20483;-28
2022/12/24 08:12:27;;;;;;;53.53;29.08;;;;;;;5.99;77.61;100037.75;5087131;28;20518;-27
2022/12/24 08:14:52;;;;;;;49.55;30.42;;;;;;;5.97;77.16;100023.88;5091246;28;20567;-29
2022/12/24 08:17:18;;;;;;;52.78;31.38;;;;;;;6.25;77.74;100046.94;5073206;28;20040;-27
2022/12/24 08:19:43;;;;;;;51.45;30.05;;;;;;;6.41;75.87;100054.59;5091313;28;20475;-28
2022/12/24 08:22:09;;;;;;;50.88;29.48;;;;;;;6.32;75.48;100047.81;5072955;28;20048;-29
2022/12/24 08:24:36;;;;;;;48.72;29.65;;;;;;;6.29;75.22;100037.59;5073173;28;20028;-30
2022/12/24 08:27:01;;;;;;;51.47;30.25;;;;;;;6.32;75.91;100050.47;5091252;28;20032;-28
2022/12/24 08:29:27;;;;;;;45.22;28.73;;;;;;;6.53;75.60;100054.91;5091066;28;20035;-31
2022/12/24 08:31:52;;;;;;;50.22;28.27;;;;;;;6.70;75.46;100049.31;5091174;28;20118;-27
2022/12/24 08:34:18;;;;;;;47.65;28.52;;;;;;;6.76;73.62;100048.53;5072522;28;20411;-30
2022/12/24 08:36:43;;;;;;;50.78;29.70;;;;;;;6.91;76.34;100045.78;5090644;28;20494;-28
2022/12/24 08:39:09;;;;;;;52.95;31.25;;;;;;;6.71;74.49;100041.16;5090525;28;20399;-29
2022/12/24 08:41:35;;;;;;;46.90;30.08;;;;;;;6.85;76.49;100047.38;5090526;28;20495;-32
2022/12/24 08:44:00;;;;;;;51.63;30.15;;;;;;;7.28;75.24;100041.06;5090522;28;20096;-26
2022/12/24 08:46:26;;;;;;;53.25;31.70;;;;;;;7.28;73.46;100046.38;5090612;28;20028;-27
2022/12/24 08:48:51;;;;;;;64.07;35.38;;;;;;;7.18;73.65;100026.31;5090321;28;20024;-29
2022/12/24 08:51:18;;;;;;;61.85;34.40;;;;;;;7.10;73.61;100054.84;5090548;28;20068;-29
2022/12/24 08:53:44;;;;;;;72.65;33.60;;;;;;;6.98;73.24;100051.94;5090420;28;20024;-28
2022/12/24 08:56:10;;;;;;;69.55;32.95;;;;;;;6.80;73.54;100024.13;5090062;28;20042;-28
2022/12/24 08:58:36;;;;;;;90.88;36.85;;;;;;;6.61;74.32;100027.44;5072015;28;20525;-28
2022/12/24 09:01:09;;;;;;;48.10;29.65;;;;;;;7.02;73.58;100039.91;5090422;28;20059;-30
2022/12/24 09:03:35;;;;;;;48.33;27.38;;;;;;;6.27;74.52;100013.13;5090245;28;20028;-28
2022/12/24 09:06:04;;;;;;;54.13;30.02;;;;;;;6.52;74.67;100033.88;5089894;28;20548;-28
2022/12/24 09:08:30;;;;;;;53.03;29.63;;;;;;;6.53;74.81;100017.00;5071733;28;20032;-30
2022/12/24 09:11:12;;;;;;;50.42;28.90;;;;;;;6.76;74.37;100038.78;5090096;28;20063;-31
2022/12/24 09:13:38;;;;;;;71.85;32.25;;;;;;;6.82;72.95;100021.25;5090431;28;20028;-29
2022/12/24 09:16:04;;;;;;;58.25;31.70;;;;;;;6.89;73.85;100013.34;5071417;28;20055;-28
2022/12/24 09:18:30;;;;;;;53.75;30.60;;;;;;;7.22;73.43;100032.06;5071614;28;20063;-29
2022/12/24 09:21:04;;;;;;;46.33;29.98;;;;;;;7.21;74.69;100012.69;5089340;28;20060;-27
2022/12/24 09:23:30;;;;;;;49.47;30.58;;;;;;;7.39;75.10;100027.22;5071797;28;20032;-28
2022/12/24 09:25:56;;;;;;;52.92;30.92;;;;;;;7.36;74.39;100043.56;5089128;28;20426;-28
2022/12/24 09:28:22;;;;;;;49.05;29.48;;;;;;;7.33;73.81;100033.31;5089996;28;20023;-26
2022/12/24 09:31:02;;;;;;;51.20;32.08;;;;;;;7.29;74.84;100037.38;5071436;28;20035;-29
2022/12/24 09:33:33;;;;;;;58.03;35.10;;;;;;;7.20;75.42;100029.59;5089412;28;20035;-29
2022/12/24 09:35:59;;;;;;;53.20;33.28;;;;;;;7.36;74.46;100027.63;5089283;28;20395;-33
2022/12/24 09:38:25;;;;;;;56.85;35.05;;;;;;;7.29;75.69;100027.59;5089839;28;20023;-29
2022/12/24 09:40:52;;;;;;;55.42;36.72;;;;;;;7.33;75.49;100014.75;5089465;28;20023;-28
2022/12/24 09:43:37;;;;;;;56.30;36.50;;;;;;;7.62;74.69;100021.56;5089474;28;20024;-31
2022/12/24 09:46:21;;;;;;;66.80;33.72;;;;;;;7.89;71.91;100025.13;5089113;28;20059;-29
2022/12/24 09:48:54;;;;;;;48.60;29.63;;;;;;;7.90;71.40;100018.78;5071389;28;20036;-29
2022/12/24 09:51:37;;;;;;;46.63;29.35;;;;;;;8.13;69.95;99991.00;5071502;28;20097;-28
2022/12/24 09:54:11;;;;;;;46.03;29.85;;;;;;;8.16;69.57;100001.22;5070893;28;20441;-31
2022/12/24 09:56:44;;;;;;;51.65;31.27;;;;;;;8.23;70.55;100004.69;5089465;28;20105;-29
2022/12/24 09:59:22;;;;;;;44.97;28.73;;;;;;;8.89;68.29;100002.97;5089199;28;20020;-29
2022/12/24 10:01:50;;;;;;;42.28;26.35;;;;;;;9.19;67.26;99980.19;5089433;28;20032;-29
2022/12/24 10:04:20;;;;;;;43.55;25.65;;;;;;;9.77;64.51;99991.72;5070779;28;20032;-27
2022/12/24 10:07:27;;;;;;;38.95;24.77;;;;;;;9.94;64.00;100003.47;5070857;28;20042;-30
2022/12/24 10:10:25;;;;;;;35.80;24.17;;;;;;;10.16;63.86;99981.81;5088657;28;20032;-30
2022/12/24 10:13:26;;;;;;;36.08;21.27;;;;;;;10.48;61.29;99993.22;5075316;28;20128;-29
2022/12/24 10:16:10;;;;;;;35.45;21.20;;;;;;;10.98;61.28;100000.28;5059711;28;20040;-29
2022/12/24 10:19:02;;;;;;;35.83;22.40;;;;;;;11.34;59.90;99982.59;5089116;28;20024;-32
2022/12/24 10:21:33;;;;;;;28.02;18.13;;;;;;;11.83;57.37;99986.03;5064570;28;20059;-29
2022/12/24 10:24:40;;;;;;;30.50;16.58;;;;;;;11.83;55.85;99988.69;5070913;28;20531;-33
2022/12/24 10:27:13;;;;;;;24.25;16.42;;;;;;;12.15;55.06;99969.72;5064352;28;20043;-30
2022/12/24 10:29:47;;;;;;;23.70;15.45;;;;;;;11.86;55.80;99981.03;5070216;28;20122;-34
2022/12/24 10:32:32;;;;;;;23.63;15.63;;;;;;;11.97;55.94;99983.97;5088857;28;20101;-28
2022/12/24 10:35:12;;;;;;;22.02;15.15;;;;;;;11.71;56.79;99979.81;5088472;28;20048;-30
2022/12/24 10:37:39;;;;;;;22.92;15.93;;;;;;;11.98;57.34;99967.72;5087554;28;20028;-30
2022/12/24 10:40:05;;;;;;;27.83;16.10;;;;;;;12.48;55.90;99976.34;5069708;28;20024;-32
2022/12/24 10:42:44;;;;;;;44.33;29.98;;;;;;;12.64;54.32;99972.94;5087319;28;20043;-29
2022/12/24 10:45:15;;;;;;;25.67;16.45;;;;;;;12.75;54.44;99960.59;5088358;28;20056;-31
2022/12/24 10:47:42;;;;;;;30.55;19.88;;;;;;;12.66;54.34;99954.81;5070118;28;20523;-28
2022/12/24 10:50:42;;;;;;;29.15;19.45;;;;;;;13.22;52.85;99963.97;5087912;28;20103;-30
2022/12/24 10:53:47;;;;;;;27.80;17.25;;;;;;;13.35;52.07;99962.91;5088217;28;20040;-30
2022/12/24 10:56:19;;;;;;;27.20;17.35;;;;;;;13.63;51.79;99963.94;5088018;28;20466;-31
2022/12/24 10:58:50;;;;;;;24.52;16.08;;;;;;;13.38;53.47;99958.91;5069862;28;20115;-29
2022/12/24 11:01:15;;;;;;;24.55;16.27;;;;;;;13.05;52.27;99952.38;5069762;28;20024;-32
2022/12/24 11:03:41;;;;;;;29.70;19.58;;;;;;;13.00;54.55;99946.94;5088125;28;20039;-30
2022/12/24 11:06:10;;;;;;;25.33;16.35;;;;;;;12.94;55.41;99958.59;5087881;28;20395;-28
2022/12/24 11:08:39;;;;;;;29.42;17.13;;;;;;;13.13;52.72;99960.03;5069555;28;20517;-33
2022/12/24 11:11:06;;;;;;;;;;;;;;;12.91;53.44;99961.72;5070131;28;20506;-27
2022/12/24 11:13:39;;;;;;;24.83;15.55;;;;;;;13.26;53.55;99954.41;5087519;28;19989;-28
2022/12/24 11:16:05;;;;;;;23.25;16.15;;;;;;;13.53;51.59;99953.84;5087826;28;20067;-28
2022/12/24 11:18:33;;;;;;;19.48;14.00;;;;;;;13.39;50.31;99957.88;5069482;28;20455;-32
2022/12/24 11:21:00;;;;;;;24.50;17.23;;;;;;;13.46;52.19;99956.69;5087816;28;20054;-32
2022/12/24 11:23:27;;;;;;;26.35;16.13;;;;;;;13.58;51.89;99935.16;5069214;28;20028;-30
2022/12/24 11:25:54;;;;;;;22.20;13.23;;;;;;;13.92;50.18;99929.84;5087891;28;20055;-29
2022/12/24 11:28:27;;;;;;;24.17;14.02;;;;;;;14.15;49.53;99946.81;5069274;28;20054;-27
2022/12/24 11:30:56;;;;;;;20.10;11.93;;;;;;;13.79;49.39;99925.63;5069564;28;20059;-33
2022/12/24 11:33:21;;;;;;;;;;;;;;;13.59;48.96;99946.72;5069902;28;20034;-31
2022/12/24 11:35:52;;;;;;;19.13;12.13;;;;;;;13.54;48.96;99919.84;5087866;28;19916;-28
2022/12/24 11:38:25;;;;;;;16.38;10.68;;;;;;;13.49;49.70;99942.00;5069065;28;20601;-30
2022/12/24 11:41:10;;;;;;;26.83;18.77;;;;;;;13.60;49.52;99943.78;5087166;28;20036;-38